createdAt,value
2022-11-10T00:03:59.136Z,10.1
2022-11-10T00:14:05.094Z,10.1
2022-11-10T00:24:13.181Z,10.1
2022-11-10T00:34:19.080Z,10
2022-11-10T00:44:27.023Z,10
2022-11-10T00:54:34.918Z,10
2022-11-10T01:04:42.884Z,10
2022-11-10T01:14:48.895Z,10
2022-11-10T01:24:54.993Z,10
2022-11-10T01:35:01.022Z,10
2022-11-10T01:45:07.072Z,9.9
2022-11-10T01:55:15.001Z,9.9
2022-11-10T02:05:21.065Z,9.9
2022-11-10T02:15:27.074Z,9.9
2022-11-10T02:25:33.161Z,9.9
2022-11-10T02:35:41.061Z,9.9
2022-11-10T02:45:47.145Z,9.9
2022-11-10T02:55:53.172Z,9.8
2022-11-10T03:05:59.229Z,9.8
2022-11-10T03:16:05.243Z,9.8
2022-11-10T03:26:13.236Z,9.8
2022-11-10T03:46:29.107Z,9.8
2022-11-10T03:56:37.001Z,9.8
2022-11-10T04:06:43.155Z,9.8
2022-11-10T04:16:50.960Z,9.7
2022-11-10T04:26:57.047Z,9.7
2022-11-10T04:37:03.079Z,9.7
2022-11-10T04:47:12.154Z,9.8
2022-11-10T04:57:17.034Z,9.9
2022-11-10T05:07:25.003Z,9.9
2022-11-10T05:17:31.019Z,9.9
2022-11-10T05:27:37.091Z,10
2022-11-10T05:37:43.136Z,10.1
2022-11-10T05:47:51.333Z,10.1
2022-11-10T05:57:57.101Z,10.1
2022-11-10T06:08:03.180Z,10.1
2022-11-10T06:18:09.208Z,10.5
2022-11-10T06:28:17.152Z,10.2
2022-11-10T06:38:23.182Z,9.8
2022-11-10T06:48:29.275Z,10.1
2022-11-10T06:58:35.291Z,9.7
2022-11-10T07:08:41.366Z,9.6
2022-11-10T07:18:49.270Z,9.5
2022-11-10T07:28:57.232Z,9.5
2022-11-10T07:39:05.138Z,9.5
2022-11-10T07:49:13.103Z,9.4
2022-11-10T07:59:21.012Z,9.4
2022-11-10T08:09:28.982Z,9.7
2022-11-10T08:19:36.932Z,9.7
2022-11-10T08:29:42.966Z,9.7
2022-11-10T08:39:48.990Z,9.7
2022-11-10T08:49:55.050Z,10.1
2022-11-10T09:00:01.097Z,9.7
2022-11-10T09:10:08.134Z,9.7
2022-11-10T09:20:13.254Z,10.1
2022-11-10T09:30:19.263Z,10.3
2022-11-10T09:40:25.298Z,10.3
2022-11-10T09:50:31.352Z,10.4
2022-11-10T10:00:37.388Z,10.5
2022-11-10T10:10:45.320Z,10.5
2022-11-10T10:20:51.344Z,10.6
2022-11-10T10:30:59.311Z,10.6
2022-11-10T10:41:05.338Z,10.7
2022-11-10T10:51:13.285Z,10.7
2022-11-10T11:01:21.275Z,10.5
2022-11-10T11:11:27.282Z,10.8
2022-11-10T11:21:35.177Z,10.8
2022-11-10T11:31:43.487Z,10.8
2022-11-10T11:41:51.044Z,10.5
2022-11-10T11:51:59.036Z,10.2
2022-11-10T12:02:06.999Z,10
2022-11-10T12:12:14.873Z,10
2022-11-10T12:22:22.772Z,10.3
2022-11-10T12:32:30.745Z,9.7
2022-11-10T12:42:36.784Z,9.5
2022-11-10T12:52:42.868Z,9.7
2022-11-10T13:02:50.762Z,9
2022-11-10T13:12:56.836Z,9.3
2022-11-10T13:23:04.723Z,9.5
2022-11-10T13:33:10.807Z,9.8
2022-11-10T13:43:16.827Z,9.6
2022-11-10T13:53:24.010Z,9.6
2022-11-10T14:03:31.257Z,9.5
2022-11-10T14:13:39.120Z,9.6
2022-11-10T14:23:45.144Z,9.6
2022-11-10T14:33:51.288Z,9.9
2022-11-10T14:43:57.238Z,9.9
2022-11-10T14:54:05.277Z,9.9
2022-11-10T15:04:11.199Z,10
2022-11-10T15:14:19.270Z,10
2022-11-10T15:24:27.071Z,10
2022-11-10T15:34:35.138Z,10
2022-11-10T15:44:42.966Z,9.9
2022-11-10T15:54:51.015Z,9.9
2022-11-10T16:05:00.122Z,10.1
2022-11-10T16:15:06.890Z,9.9
2022-11-10T16:25:20.645Z,10.1
2022-11-10T16:35:22.756Z,10
2022-11-10T16:45:30.565Z,10
2022-11-10T16:55:36.741Z,10
2022-11-10T17:05:42.685Z,10
2022-11-10T17:15:48.845Z,10
2022-11-10T17:25:54.768Z,10
2022-11-10T17:36:02.806Z,9.9
2022-11-10T17:46:08.758Z,10.1
2022-11-10T17:56:14.900Z,10.1
2022-11-10T18:06:22.745Z,10.1
2022-11-10T18:16:28.899Z,10.1
2022-11-10T18:26:34.819Z,10.1
2022-11-10T18:36:40.994Z,10
2022-11-10T18:46:46.913Z,10
2022-11-10T18:56:53.096Z,10
2022-11-10T19:07:00.971Z,10
2022-11-10T19:17:08.949Z,10
2022-11-10T19:27:16.803Z,10
2022-11-10T19:37:24.838Z,9.9
2022-11-10T19:47:32.635Z,9.9
2022-11-10T19:57:40.684Z,9.9
2022-11-10T20:07:48.525Z,9.9
2022-11-10T20:17:56.577Z,9.9
2022-11-10T20:28:04.393Z,9.9
2022-11-10T20:38:12.466Z,9.9
2022-11-10T20:48:20.261Z,9.8
2022-11-10T20:58:28.313Z,9.8
2022-11-10T21:08:36.120Z,9.8
2022-11-10T21:18:44.232Z,9.8
2022-11-10T21:28:50.117Z,9.8
2022-11-10T21:38:56.266Z,9.8
2022-11-10T21:49:07.600Z,9.7
2022-11-10T21:59:10.266Z,9.7
2022-11-10T22:09:16.181Z,9.7
2022-11-10T22:19:22.352Z,9.7
2022-11-10T22:29:31.722Z,9.7
2022-11-10T22:39:36.359Z,9.6
2022-11-10T22:49:42.279Z,9.6
2022-11-10T22:59:48.441Z,9.6
2022-11-10T23:09:54.372Z,9.6
2022-11-10T23:20:02.426Z,9.6
2022-11-10T23:40:18.319Z,9.6
2022-11-10T23:50:26.097Z,9.5
